Time;durP1;ratioP1;P1;durP2;ratioP2;P2;SDS_P1;SDS_P2;PMS_P1;PMS_P2;Temp;Humidity;BMP_temperature;BMP_pressure;BME280_temperature;BME280_humidity;BME280_pressure;Samples;Min_cycle;Max_cycle;Signal;HPM_P1;HPM_P2
2022/06/30 00:09:16;;;;;;;2.20;1.13;;;;;;;;;;20901030;28;20599;-72
2022/06/30 00:19:17;;;;;;;1.58;1.10;;;;;;;;;;20867273;28;20272;-72
2022/06/30 00:29:19;;;;;;;2.05;0.90;;;;;;;;;;20833071;28;20216;-72
2022/06/30 00:39:21;;;;;;;1.08;0.80;;;25.20;99.90;;;;;;20870924;28;20703;-72
2022/06/30 00:49:23;;;;;;;1.48;1.05;;;;;;;;;;20818174;28;20564;-72
2022/06/30 00:59:26;;;;;;;1.38;1.00;;;;;;;;;;20872147;28;20228;-72
2022/06/30 01:20:00;;;;;;;1.83;1.10;;;;;;;;;;20818007;28;20712;-72
2022/06/30 01:30:03;;;;;;;1.30;0.80;;;24.30;99.90;;;;;;20878128;28;20219;-72
2022/06/30 01:40:05;;;;;;;1.40;0.90;;;;;;;;;;20998411;22;20789;-76
2022/06/30 01:50:13;;;;;;;1.52;1.00;;;24.10;99.90;;;;;;21043267;28;20289;-76
2022/06/30 02:00:16;;;;;;;2.03;1.20;;;;;;;;;;21056928;28;20210;-76
2022/06/30 02:10:20;;;;;;;1.80;1.08;;;23.90;99.90;;;;;;21022703;28;20206;-75
2022/06/30 02:20:23;;;;;;;1.80;1.30;;;23.70;99.90;;;;;;21054168;28;20753;-76
2022/06/30 02:30:25;;;;;;;1.92;1.00;;;;;;;;;;21073049;28;20253;-77
2022/06/30 02:40:27;;;;;;;2.00;1.17;;;;;;;;;;21071296;28;20201;-77
2022/06/30 02:50:29;;;;;;;2.15;1.23;;;;;;;;;;21071373;28;20194;-77
2022/06/30 03:00:30;;;;;;;1.77;0.90;;;23.40;99.90;;;;;;21070013;28;20219;-76
2022/06/30 03:10:32;;;;;;;1.42;1.00;;;;;;;;;;21036197;28;20703;-77
2022/06/30 03:20:34;;;;;;;2.10;1.20;;;;;;;;;;21050045;28;20217;-76
2022/06/30 03:30:36;;;;;;;1.42;1.15;;;;;;;;;;21051320;28;20599;-76
2022/06/30 03:40:38;;;;;;;2.70;1.20;;;;;;;;;;21000481;28;20222;-76
2022/06/30 03:50:40;;;;;;;2.15;1.23;;;;;;;;;;21030923;28;20241;-76
2022/06/30 04:00:42;;;;;;;2.58;1.10;;;;;;;;;;21033248;28;20216;-76
2022/06/30 04:10:43;;;;;;;2.40;1.35;;;;;;;;;;21075459;28;20218;-76
2022/06/30 04:20:45;;;;;;;3.53;1.40;;;;;;;;;;21036883;28;20679;-76
2022/06/30 04:41:23;;;;;;;1.88;1.20;;;;;;;;;;21007357;28;20219;-76
2022/06/30 04:51:25;;;;;;;1.98;1.33;;;;;;;;;;20979390;28;20662;-76
2022/06/30 05:01:26;;;;;;;2.30;1.50;;;;;;;;;;21003899;28;20207;-78
2022/06/30 05:11:28;;;;;;;1.60;1.20;;;;;;;;;;21049732;28;20578;-78
2022/06/30 05:21:30;;;;;;;4.70;1.35;;;;;;;;;;21046936;28;20216;-78
2022/06/30 05:31:31;;;;;;;2.42;1.48;;;;;;;;;;20971196;28;20220;-80
2022/06/30 05:41:33;;;;;;;3.38;1.30;;;;;;;;;;20999384;28;20222;-80
2022/06/30 05:51:35;;;;;;;1.70;1.30;;;;;;;;;;20994726;28;20270;-81
2022/06/30 06:01:37;;;;;;;3.22;1.80;;;23.50;99.90;;;;;;20974788;28;20213;-78
2022/06/30 06:11:39;;;;;;;2.00;1.40;;;;;;;;;;20966037;28;20228;-78
2022/06/30 06:21:41;;;;;;;2.45;1.08;;;;;;;;;;20960442;28;20323;-78
2022/06/30 06:31:43;;;;;;;2.00;1.38;;;23.90;99.90;;;;;;20994525;28;20217;-78
2022/06/30 06:41:45;;;;;;;1.63;1.30;;;;;;;;;;20959585;28;20664;-78
2022/06/30 06:51:47;;;;;;;1.58;1.17;;;;;;;;;;20998704;28;20223;-78
2022/06/30 07:01:48;;;;;;;1.65;1.23;;;;;;;;;;20974397;28;20211;-78
2022/06/30 07:11:50;;;;;;;1.25;1.15;;;;;;;;;;20990316;28;20223;-78
2022/06/30 07:21:52;;;;;;;2.45;1.20;;;;;;;;;;20971074;28;20649;-78
2022/06/30 07:31:54;;;;;;;1.98;1.20;;;;;;;;;;20987260;28;20261;-76
2022/06/30 07:42:03;;;;;;;3.53;1.50;;;;;;;;;;21072546;22;20234;-73
2022/06/30 07:52:06;;;;;;;1.83;1.13;;;;;;;;;;21153862;28;20224;-74
2022/06/30 08:02:08;;;;;;;1.42;1.13;;;;;;;;;;21070566;28;20239;-74
2022/06/30 08:12:11;;;;;;;1.73;1.20;;;;;;;;;;21056081;28;20598;-74
2022/06/30 08:22:16;;;;;;;1.67;1.40;;;;;;;;;;21039149;28;20217;-73
2022/06/30 08:32:17;;;;;;;1.42;1.00;;;;;;;;;;21043061;28;20260;-74
2022/06/30 08:42:21;;;;;;;3.75;1.20;;;;;;;;;;21058316;28;20262;-74
2022/06/30 08:52:25;;;;;;;1.80;1.20;;;;;;;;;;21049138;28;20215;-74
2022/06/30 09:02:27;;;;;;;1.83;0.90;;;;;;;;;;21046367;28;20222;-74
2022/06/30 09:12:29;;;;;;;1.42;0.90;;;;;;;;;;21061361;28;20207;-75
2022/06/30 09:22:51;;;;;;;1.17;0.77;;;;;;;;;;21071845;28;20223;-74
2022/06/30 09:33:06;;;;;;;2.38;0.98;;;28.20;99.90;;;;;;21040825;28;20271;-74
2022/06/30 09:43:08;;;;;;;2.65;1.08;;;;;;;;;;21051766;28;20230;-74
2022/06/30 09:53:12;;;;;;;1.10;0.70;;;;;;;;;;21048375;28;20219;-75
2022/06/30 10:03:16;;;;;;;0.70;0.60;;;28.40;99.90;;;;;;21034577;28;20250;-74
2022/06/30 10:13:18;;;;;;;1.45;0.80;;;28.00;99.90;;;;;;21024260;28;20242;-74
2022/06/30 10:23:22;;;;;;;2.35;0.70;;;28.90;99.90;;;;;;21036637;28;20277;-74
2022/06/30 10:33:43;;;;;;;1.13;0.60;;;;;;;;;;21019960;28;20226;-75
2022/06/30 10:44:03;;;;;;;0.95;0.60;;;28.80;92.50;;;;;;20966193;28;20356;-74
2022/06/30 10:54:05;;;;;;;1.38;0.80;;;;;;;;;;20981953;28;20707;-74
2022/06/30 11:04:13;;;;;;;0.90;0.60;;;;;;;;;;21008003;28;20212;-74
2022/06/30 11:14:17;;;;;;;2.15;0.60;;;;;;;;;;21039359;28;20260;-74
2022/06/30 11:24:22;;;;;;;0.60;0.43;;;;;;;;;;21068842;28;20212;-74
2022/06/30 11:34:25;;;;;;;2.10;0.65;;;30.10;92.30;;;;;;21062244;28;20246;-75
2022/06/30 11:44:37;;;;;;;1.50;0.60;;;;;;;;;;21066504;28;20224;-75
2022/06/30 11:54:41;;;;;;;0.85;0.60;;;30.70;92.90;;;;;;21090538;28;20325;-75
2022/06/30 12:04:44;;;;;;;0.93;0.60;;;;;;;;;;21081097;28;20239;-75
2022/06/30 12:14:46;;;;;;;2.30;0.77;;;30.80;91.70;;;;;;21059865;28;20293;-76
2022/06/30 12:24:50;;;;;;;0.88;0.60;;;;;;;;;;21091856;28;20204;-76
2022/06/30 12:34:52;;;;;;;2.05;0.88;;;;;;;;;;21075165;28;20768;-76
2022/06/30 12:44:54;;;;;;;2.42;0.80;;;;;;;;;;21029169;28;20286;-76
2022/06/30 12:54:59;;;;;;;2.28;0.73;;;;;;;;;;21035563;28;20225;-75
2022/06/30 13:05:01;;;;;;;1.10;0.70;;;;;;;;;;21024191;28;20205;-75
2022/06/30 13:15:03;;;;;;;1.40;0.70;;;;;;;;;;21022080;28;20220;-76
2022/06/30 13:25:05;;;;;;;1.52;0.57;;;;;;;;;;21034465;28;20675;-76
2022/06/30 13:35:07;;;;;;;1.00;0.70;;;;;;;;;;21005060;28;20225;-76
2022/06/30 13:45:09;;;;;;;1.00;0.68;;;;;;;;;;20969950;22;20232;-87
2022/06/30 13:55:12;;;;;;;1.30;0.75;;;;;;;;;;20986737;28;20237;-88
2022/06/30 14:05:14;;;;;;;1.35;0.70;;;;;;;;;;21015517;28;20242;-88
2022/06/30 14:15:15;;;;;;;1.27;0.82;;;;;;;;;;21018114;28;20650;-88
2022/06/30 14:25:19;;;;;;;1.17;0.70;;;;;;;;;;21017337;27;20229;-88
2022/06/30 14:35:22;;;;;;;2.17;0.80;;;;;;;;;;21041031;28;20770;-87
2022/06/30 14:45:25;;;;;;;1.63;0.80;;;;;;;;;;21038949;28;20596;-86
2022/06/30 14:55:27;;;;;;;0.95;0.70;;;;;;;;;;21039618;28;20282;-87
2022/06/30 15:05:30;;;;;;;1.98;0.80;;;;;;;;;;21022684;28;20266;-87
2022/06/30 15:15:32;;;;;;;1.50;0.70;;;;;;;;;;21039526;28;20600;-87
2022/06/30 15:25:34;;;;;;;1.30;0.73;;;;;;;;;;21038398;28;20248;-87
2022/06/30 15:35:36;;;;;;;1.05;0.60;;;;;;;;;;21036781;28;20457;-86
2022/06/30 15:45:40;;;;;;;1.95;0.80;;;;;;;;;;21004922;28;20228;-86
2022/06/30 15:55:41;;;;;;;2.03;0.90;;;;;;;;;;21001848;28;20237;-84
2022/06/30 16:05:43;;;;;;;2.15;0.90;;;;;;;;;;21059377;28;20220;-87
2022/06/30 16:15:45;;;;;;;0.90;0.77;;;;;;;;;;21017493;28;20266;-86
2022/06/30 16:25:47;;;;;;;1.58;0.70;;;;;;;;;;21033205;28;20727;-87
2022/06/30 16:35:49;;;;;;;1.10;0.70;;;;;;;;;;21083975;28;20233;-87
2022/06/30 16:45:51;;;;;;;1.75;0.90;;;;;;;;;;21032249;28;20228;-87
2022/06/30 16:55:54;;;;;;;2.05;0.63;;;;;;;;;;21047693;28;20232;-86
2022/06/30 17:05:59;;;;;;;0.90;0.75;;;;;;;;;;21014687;28;20297;-86
2022/06/30 17:16:01;;;;;;;2.47;0.75;;;;;;;;;;21006759;28;20216;-86
2022/06/30 17:26:06;;;;;;;2.40;0.98;;;;;;;;;;21071146;28;20220;-87
2022/06/30 17:36:09;;;;;;;1.27;0.77;;;;;;;;;;21038458;28;20733;-88
2022/06/30 17:46:11;;;;;;;1.45;0.88;;;;;;;;;;21053363;28;20277;-86
2022/06/30 17:56:15;;;;;;;4.82;1.00;;;;;;;;;;21055843;28;20547;-86
2022/06/30 18:16:43;;;;;;;6.95;1.13;;;;;;;;;;21019578;28;20244;-86
2022/06/30 18:26:45;;;;;;;2.28;0.55;;;;;;;;;;21048537;28;20577;-87
2022/06/30 18:36:48;;;;;;;1.80;0.70;;;;;;;;;;21021790;28;20265;-86
2022/06/30 18:46:50;;;;;;;1.90;0.82;;;;;;;;;;21006562;28;20289;-86
2022/06/30 18:57:12;;;;;;;0.63;0.50;;;;;;;;;;21019655;28;20281;-85
2022/06/30 19:07:14;;;;;;;0.75;0.68;;;;;;;;;;21043670;28;20560;-82
2022/06/30 19:17:15;;;;;;;1.65;0.80;;;;;;;;;;21049223;27;20647;-82
2022/06/30 19:27:17;;;;;;;1.52;0.60;;;;;;;;;;21032207;28;20206;-82
2022/06/30 19:37:38;;;;;;;3.53;0.80;;;;;;;;;;21063065;27;20257;-84
2022/06/30 19:47:45;;;;;;;1.50;0.63;;;;;;;;;;21043051;28;20227;-85
2022/06/30 19:57:47;;;;;;;1.35;0.50;;;;;;;;;;21090806;28;20240;-86
2022/06/30 20:18:11;;;;;;;0.60;0.40;;;;;;;;;;21083869;28;20556;-87
2022/06/30 20:28:13;;;;;;;0.38;0.28;;;;;;;;;;21081644;28;20215;-87
2022/06/30 20:38:15;;;;;;;0.30;0.20;;;;;;;;;;21047456;27;20289;-86
2022/06/30 20:58:37;;;;;;;1.20;0.50;;;;;;;;;;21057605;28;20684;-88
2022/06/30 21:08:39;;;;;;;0.68;0.30;;;;;;;;;;21033982;28;20680;-85
2022/06/30 21:18:43;;;;;;;2.20;0.25;;;;;;;;;;21066994;28;20715;-84
2022/06/30 21:28:52;;;;;;;0.28;0.20;;;;;;;;;;21038814;28;20574;-85
2022/06/30 21:38:53;;;;;;;0.22;0.20;;;;;;;;;;21048086;28;20218;-85
2022/06/30 21:49:04;;;;;;;0.30;0.30;;;;;;;;;;21041134;28;20268;-83
2022/06/30 21:59:06;;;;;;;0.15;0.10;;;;;;;;;;21025811;28;20235;-85
2022/06/30 22:09:10;;;;;;;0.50;0.20;;;;;;;;;;21070292;28;20215;-86
2022/06/30 22:19:12;;;;;;;0.10;0.10;;;;;;;;;;21046519;28;20219;-86
2022/06/30 22:29:13;;;;;;;0.10;0.10;;;;;;;;;;21079646;28;20191;-85
2022/06/30 22:39:15;;;;;;;0.68;0.20;;;;;;;;;;21061272;28;20282;-85
2022/06/30 22:49:17;;;;;;;0.25;0.20;;;;;;;;;;21047576;28;20277;-84
2022/06/30 22:59:19;;;;;;;0.35;0.20;;;;;;;;;;21025739;28;20282;-86
2022/06/30 23:09:27;;;;;;;1.75;0.30;;;;;;;;;;21024862;28;20773;-83
2022/06/30 23:19:29;;;;;;;0.20;0.20;;;;;;;;;;21075471;28;20300;-85
2022/06/30 23:29:30;;;;;;;0.40;0.30;;;;;;;;;;21040549;28;20257;-86
2022/06/30 23:39:32;;;;;;;0.20;0.20;;;;;;;;;;21033297;28;20237;-84
2022/06/30 23:49:34;;;;;;;0.20;0.20;;;;;;;;;;21051610;28;20257;-85
2022/06/30 23:59:35;;;;;;;0.30;0.20;;;;;;;;;;21055599;28;20778;-84
